sensor_id;sensor_type;location;lat;lon;timestamp;P1;durP1;ratioP1;P2;durP2;ratioP2
9823;SDS011;4951;50.778;7.196;2022-08-18T00:01:37;11.80;;;10.75;;
9823;SDS011;4951;50.778;7.196;2022-08-18T00:04:05;12.80;;;11.60;;
9823;SDS011;4951;50.778;7.196;2022-08-18T00:06:32;11.87;;;10.77;;
9823;SDS011;4951;50.778;7.196;2022-08-18T00:09:02;11.37;;;10.47;;
9823;SDS011;4951;50.778;7.196;2022-08-18T00:11:33;11.33;;;10.43;;
9823;SDS011;4951;50.778;7.196;2022-08-18T00:14:05;11.03;;;10.13;;
9823;SDS011;4951;50.778;7.196;2022-08-18T00:16:35;11.83;;;10.93;;
9823;SDS011;4951;50.778;7.196;2022-08-18T00:19:02;10.17;;;9.20;;
9823;SDS011;4951;50.778;7.196;2022-08-18T00:21:30;12.97;;;11.70;;
9823;SDS011;4951;50.778;7.196;2022-08-18T00:23:57;13.10;;;12.00;;
9823;SDS011;4951;50.778;7.196;2022-08-18T00:26:25;12.70;;;11.60;;
9823;SDS011;4951;50.778;7.196;2022-08-18T00:28:52;14.00;;;12.53;;
9823;SDS011;4951;50.778;7.196;2022-08-18T00:31:34;12.23;;;11.23;;
9823;SDS011;4951;50.778;7.196;2022-08-18T00:34:01;12.90;;;11.80;;
9823;SDS011;4951;50.778;7.196;2022-08-18T00:36:28;14.13;;;13.03;;
9823;SDS011;4951;50.778;7.196;2022-08-18T00:38:57;14.17;;;13.07;;
9823;SDS011;4951;50.778;7.196;2022-08-18T00:41:24;14.23;;;13.03;;
9823;SDS011;4951;50.778;7.196;2022-08-18T00:43:52;13.50;;;12.17;;
9823;SDS011;4951;50.778;7.196;2022-08-18T00:46:23;13.73;;;12.57;;
9823;SDS011;4951;50.778;7.196;2022-08-18T00:48:53;14.57;;;13.30;;
9823;SDS011;4951;50.778;7.196;2022-08-18T00:51:22;15.27;;;14.03;;
9823;SDS011;4951;50.778;7.196;2022-08-18T00:53:52;14.33;;;13.03;;
9823;SDS011;4951;50.778;7.196;2022-08-18T00:56:25;15.03;;;13.63;;
9823;SDS011;4951;50.778;7.196;2022-08-18T00:58:57;14.97;;;13.60;;
9823;SDS011;4951;50.778;7.196;2022-08-18T01:01:29;15.33;;;13.90;;
9823;SDS011;4951;50.778;7.196;2022-08-18T01:04:01;15.90;;;14.57;;
9823;SDS011;4951;50.778;7.196;2022-08-18T01:06:34;15.17;;;13.70;;
9823;SDS011;4951;50.778;7.196;2022-08-18T01:09:05;14.50;;;13.10;;
9823;SDS011;4951;50.778;7.196;2022-08-18T01:11:33;14.40;;;13.20;;
9823;SDS011;4951;50.778;7.196;2022-08-18T01:14:02;14.47;;;13.17;;
9823;SDS011;4951;50.778;7.196;2022-08-18T01:16:33;13.57;;;12.40;;
9823;SDS011;4951;50.778;7.196;2022-08-18T01:19:20;14.07;;;12.87;;
9823;SDS011;4951;50.778;7.196;2022-08-18T01:22:07;13.87;;;12.63;;
9823;SDS011;4951;50.778;7.196;2022-08-18T01:24:43;12.23;;;11.13;;
9823;SDS011;4951;50.778;7.196;2022-08-18T01:27:28;12.90;;;11.80;;
9823;SDS011;4951;50.778;7.196;2022-08-18T01:29:57;12.73;;;11.27;;
9823;SDS011;4951;50.778;7.196;2022-08-18T01:32:30;12.93;;;11.80;;
9823;SDS011;4951;50.778;7.196;2022-08-18T01:35:07;12.47;;;11.37;;
9823;SDS011;4951;50.778;7.196;2022-08-18T01:37:36;12.63;;;11.43;;
9823;SDS011;4951;50.778;7.196;2022-08-18T01:40:11;13.13;;;12.03;;
9823;SDS011;4951;50.778;7.196;2022-08-18T01:42:42;13.70;;;12.50;;
9823;SDS011;4951;50.778;7.196;2022-08-18T01:45:27;12.47;;;11.43;;
9823;SDS011;4951;50.778;7.196;2022-08-18T01:47:56;13.00;;;11.77;;
9823;SDS011;4951;50.778;7.196;2022-08-18T01:50:24;12.90;;;11.60;;
9823;SDS011;4951;50.778;7.196;2022-08-18T01:52:51;12.77;;;11.67;;
9823;SDS011;4951;50.778;7.196;2022-08-18T01:55:31;13.67;;;12.40;;
9823;SDS011;4951;50.778;7.196;2022-08-18T01:57:58;14.40;;;13.20;;
9823;SDS011;4951;50.778;7.196;2022-08-18T02:00:28;14.47;;;13.27;;
9823;SDS011;4951;50.778;7.196;2022-08-18T02:02:56;14.13;;;12.83;;
9823;SDS011;4951;50.778;7.196;2022-08-18T02:05:26;13.67;;;12.47;;
9823;SDS011;4951;50.778;7.196;2022-08-18T02:07:57;13.03;;;11.73;;
9823;SDS011;4951;50.778;7.196;2022-08-18T02:10:25;14.07;;;12.97;;
9823;SDS011;4951;50.778;7.196;2022-08-18T02:12:54;13.90;;;12.80;;
9823;SDS011;4951;50.778;7.196;2022-08-18T02:15:23;15.00;;;13.70;;
9823;SDS011;4951;50.778;7.196;2022-08-18T02:17:51;13.57;;;12.47;;
9823;SDS011;4951;50.778;7.196;2022-08-18T02:20:18;14.27;;;13.17;;
9823;SDS011;4951;50.778;7.196;2022-08-18T02:22:46;13.37;;;12.17;;
9823;SDS011;4951;50.778;7.196;2022-08-18T02:25:14;14.23;;;12.90;;
9823;SDS011;4951;50.778;7.196;2022-08-18T02:27:43;11.93;;;11.00;;
9823;SDS011;4951;50.778;7.196;2022-08-18T02:30:14;13.30;;;12.20;;
9823;SDS011;4951;50.778;7.196;2022-08-18T02:32:44;12.87;;;11.77;;
9823;SDS011;4951;50.778;7.196;2022-08-18T02:35:11;13.40;;;12.20;;
9823;SDS011;4951;50.778;7.196;2022-08-18T02:37:39;15.07;;;13.97;;
9823;SDS011;4951;50.778;7.196;2022-08-18T02:40:08;13.07;;;12.07;;
9823;SDS011;4951;50.778;7.196;2022-08-18T02:42:36;12.70;;;11.60;;
9823;SDS011;4951;50.778;7.196;2022-08-18T02:45:04;15.00;;;13.70;;
9823;SDS011;4951;50.778;7.196;2022-08-18T02:47:33;14.47;;;13.27;;
9823;SDS011;4951;50.778;7.196;2022-08-18T02:50:00;13.93;;;12.73;;
9823;SDS011;4951;50.778;7.196;2022-08-18T02:52:29;15.23;;;13.93;;
9823;SDS011;4951;50.778;7.196;2022-08-18T02:54:57;17.53;;;15.93;;
9823;SDS011;4951;50.778;7.196;2022-08-18T02:57:25;17.20;;;15.80;;
9823;SDS011;4951;50.778;7.196;2022-08-18T02:59:53;17.23;;;15.83;;
9823;SDS011;4951;50.778;7.196;2022-08-18T03:02:22;18.80;;;17.00;;
9823;SDS011;4951;50.778;7.196;2022-08-18T03:04:51;16.47;;;15.17;;
9823;SDS011;4951;50.778;7.196;2022-08-18T03:07:18;16.77;;;15.37;;
9823;SDS011;4951;50.778;7.196;2022-08-18T03:09:45;19.13;;;17.47;;
9823;SDS011;4951;50.778;7.196;2022-08-18T03:12:15;16.17;;;14.80;;
9823;SDS011;4951;50.778;7.196;2022-08-18T03:14:43;16.27;;;14.97;;
9823;SDS011;4951;50.778;7.196;2022-08-18T03:17:11;18.57;;;16.93;;
9823;SDS011;4951;50.778;7.196;2022-08-18T03:19:39;18.23;;;16.63;;
9823;SDS011;4951;50.778;7.196;2022-08-18T03:22:15;15.27;;;14.07;;
9823;SDS011;4951;50.778;7.196;2022-08-18T03:24:43;14.50;;;13.33;;
9823;SDS011;4951;50.778;7.196;2022-08-18T03:27:15;18.03;;;16.53;;
9823;SDS011;4951;50.778;7.196;2022-08-18T03:29:43;17.47;;;15.97;;
9823;SDS011;4951;50.778;7.196;2022-08-18T03:32:13;17.87;;;16.43;;
9823;SDS011;4951;50.778;7.196;2022-08-18T03:34:44;18.57;;;16.80;;
9823;SDS011;4951;50.778;7.196;2022-08-18T03:37:24;17.47;;;16.07;;
9823;SDS011;4951;50.778;7.196;2022-08-18T03:39:52;16.17;;;14.87;;
9823;SDS011;4951;50.778;7.196;2022-08-18T03:42:24;16.93;;;15.57;;
9823;SDS011;4951;50.778;7.196;2022-08-18T03:45:26;17.90;;;16.40;;
9823;SDS011;4951;50.778;7.196;2022-08-18T03:47:56;15.97;;;14.70;;
9823;SDS011;4951;50.778;7.196;2022-08-18T03:50:31;14.77;;;13.57;;
9823;SDS011;4951;50.778;7.196;2022-08-18T03:52:59;14.90;;;13.53;;
9823;SDS011;4951;50.778;7.196;2022-08-18T03:55:29;14.43;;;13.13;;
9823;SDS011;4951;50.778;7.196;2022-08-18T03:57:57;16.90;;;15.60;;
9823;SDS011;4951;50.778;7.196;2022-08-18T04:00:27;17.67;;;16.27;;
9823;SDS011;4951;50.778;7.196;2022-08-18T04:02:56;18.50;;;16.67;;
9823;SDS011;4951;50.778;7.196;2022-08-18T04:05:25;18.10;;;16.40;;
9823;SDS011;4951;50.778;7.196;2022-08-18T04:07:52;19.50;;;17.70;;
9823;SDS011;4951;50.778;7.196;2022-08-18T04:10:24;20.00;;;18.30;;
9823;SDS011;4951;50.778;7.196;2022-08-18T04:12:52;19.60;;;17.90;;
9823;SDS011;4951;50.778;7.196;2022-08-18T04:15:18;19.33;;;17.63;;
9823;SDS011;4951;50.778;7.196;2022-08-18T04:17:46;22.20;;;20.07;;
9823;SDS011;4951;50.778;7.196;2022-08-18T04:20:13;20.93;;;19.10;;
9823;SDS011;4951;50.778;7.196;2022-08-18T04:22:40;22.30;;;20.30;;
9823;SDS011;4951;50.778;7.196;2022-08-18T04:25:09;21.73;;;19.73;;
9823;SDS011;4951;50.778;7.196;2022-08-18T04:27:39;21.23;;;19.53;;
9823;SDS011;4951;50.778;7.196;2022-08-18T04:30:08;21.90;;;20.03;;
9823;SDS011;4951;50.778;7.196;2022-08-18T04:32:36;22.67;;;20.37;;
9823;SDS011;4951;50.778;7.196;2022-08-18T04:35:04;22.67;;;20.77;;
9823;SDS011;4951;50.778;7.196;2022-08-18T04:37:31;21.33;;;19.47;;
9823;SDS011;4951;50.778;7.196;2022-08-18T04:40:01;22.40;;;20.00;;
9823;SDS011;4951;50.778;7.196;2022-08-18T04:42:29;23.00;;;20.90;;
9823;SDS011;4951;50.778;7.196;2022-08-18T04:44:59;22.13;;;20.07;;
9823;SDS011;4951;50.778;7.196;2022-08-18T04:47:32;21.57;;;19.57;;
9823;SDS011;4951;50.778;7.196;2022-08-18T04:50:00;21.67;;;19.87;;
9823;SDS011;4951;50.778;7.196;2022-08-18T04:52:28;21.57;;;19.77;;
9823;SDS011;4951;50.778;7.196;2022-08-18T04:55:17;23.43;;;21.50;;
9823;SDS011;4951;50.778;7.196;2022-08-18T04:57:54;24.20;;;22.13;;
9823;SDS011;4951;50.778;7.196;2022-08-18T05:00:28;23.50;;;21.50;;
9823;SDS011;4951;50.778;7.196;2022-08-18T05:03:09;25.00;;;22.80;;
9823;SDS011;4951;50.778;7.196;2022-08-18T05:06:02;22.83;;;20.83;;
9823;SDS011;4951;50.778;7.196;2022-08-18T05:08:31;24.07;;;22.00;;
9823;SDS011;4951;50.778;7.196;2022-08-18T05:10:58;20.67;;;18.87;;
9823;SDS011;4951;50.778;7.196;2022-08-18T05:13:25;21.50;;;19.63;;
9823;SDS011;4951;50.778;7.196;2022-08-18T05:15:54;20.37;;;18.67;;
9823;SDS011;4951;50.778;7.196;2022-08-18T05:18:28;22.40;;;20.50;;
9823;SDS011;4951;50.778;7.196;2022-08-18T05:20:56;19.90;;;18.10;;
9823;SDS011;4951;50.778;7.196;2022-08-18T05:23:29;19.90;;;18.10;;
9823;SDS011;4951;50.778;7.196;2022-08-18T05:25:59;21.63;;;19.83;;
9823;SDS011;4951;50.778;7.196;2022-08-18T05:28:39;16.97;;;15.47;;
9823;SDS011;4951;50.778;7.196;2022-08-18T05:31:10;19.83;;;18.03;;
9823;SDS011;4951;50.778;7.196;2022-08-18T05:33:39;20.67;;;18.73;;
9823;SDS011;4951;50.778;7.196;2022-08-18T05:36:09;19.43;;;17.73;;
9823;SDS011;4951;50.778;7.196;2022-08-18T05:39:25;21.90;;;19.97;;
9823;SDS011;4951;50.778;7.196;2022-08-18T05:42:06;21.53;;;19.63;;
9823;SDS011;4951;50.778;7.196;2022-08-18T05:44:45;21.30;;;19.50;;
9823;SDS011;4951;50.778;7.196;2022-08-18T05:47:16;19.97;;;18.20;;
9823;SDS011;4951;50.778;7.196;2022-08-18T05:49:49;25.33;;;22.83;;
9823;SDS011;4951;50.778;7.196;2022-08-18T05:52:20;24.47;;;22.27;;
9823;SDS011;4951;50.778;7.196;2022-08-18T05:55:00;26.10;;;23.90;;
9823;SDS011;4951;50.778;7.196;2022-08-18T05:57:58;26.63;;;24.13;;
9823;SDS011;4951;50.778;7.196;2022-08-18T06:00:39;30.13;;;27.33;;
9823;SDS011;4951;50.778;7.196;2022-08-18T06:03:14;32.80;;;29.70;;
9823;SDS011;4951;50.778;7.196;2022-08-18T06:05:51;31.83;;;28.73;;
9823;SDS011;4951;50.778;7.196;2022-08-18T06:08:32;31.80;;;28.63;;
9823;SDS011;4951;50.778;7.196;2022-08-18T06:11:04;34.22;;;30.83;;
9823;SDS011;4951;50.778;7.196;2022-08-18T06:13:34;34.97;;;31.57;;
9823;SDS011;4951;50.778;7.196;2022-08-18T06:16:13;37.50;;;34.00;;
9823;SDS011;4951;50.778;7.196;2022-08-18T06:18:57;36.00;;;32.43;;
9823;SDS011;4951;50.778;7.196;2022-08-18T06:21:38;38.60;;;34.67;;
9823;SDS011;4951;50.778;7.196;2022-08-18T06:24:20;42.83;;;38.23;;
9823;SDS011;4951;50.778;7.196;2022-08-18T06:27:10;37.27;;;33.47;;
9823;SDS011;4951;50.778;7.196;2022-08-18T06:29:54;38.70;;;34.63;;
9823;SDS011;4951;50.778;7.196;2022-08-18T06:32:33;41.50;;;36.97;;
9823;SDS011;4951;50.778;7.196;2022-08-18T06:35:16;51.57;;;43.23;;
9823;SDS011;4951;50.778;7.196;2022-08-18T06:37:54;48.27;;;40.77;;
9823;SDS011;4951;50.778;7.196;2022-08-18T06:40:45;51.67;;;43.23;;
9823;SDS011;4951;50.778;7.196;2022-08-18T06:43:14;51.93;;;43.47;;
9823;SDS011;4951;50.778;7.196;2022-08-18T06:45:53;62.57;;;48.53;;
9823;SDS011;4951;50.778;7.196;2022-08-18T06:48:22;62.50;;;44.93;;
9823;SDS011;4951;50.778;7.196;2022-08-18T06:51:00;59.40;;;43.33;;
9823;SDS011;4951;50.778;7.196;2022-08-18T06:53:48;63.53;;;44.50;;
9823;SDS011;4951;50.778;7.196;2022-08-18T06:59:19;63.37;;;45.60;;
9823;SDS011;4951;50.778;7.196;2022-08-18T07:05:06;64.53;;;45.77;;
9823;SDS011;4951;50.778;7.196;2022-08-18T07:07:45;68.40;;;48.67;;
9823;SDS011;4951;50.778;7.196;2022-08-18T07:10:30;67.97;;;49.90;;
9823;SDS011;4951;50.778;7.196;2022-08-18T07:13:12;75.40;;;46.93;;
9823;SDS011;4951;50.778;7.196;2022-08-18T07:15:46;70.70;;;48.53;;
9823;SDS011;4951;50.778;7.196;2022-08-18T07:18:27;78.03;;;49.03;;
9823;SDS011;4951;50.778;7.196;2022-08-18T07:20:56;70.53;;;48.67;;
9823;SDS011;4951;50.778;7.196;2022-08-18T07:23:29;72.47;;;46.13;;
9823;SDS011;4951;50.778;7.196;2022-08-18T07:26:04;128.07;;;48.00;;
9823;SDS011;4951;50.778;7.196;2022-08-18T07:28:35;65.27;;;42.23;;
9823;SDS011;4951;50.778;7.196;2022-08-18T07:31:07;59.38;;;41.80;;
9823;SDS011;4951;50.778;7.196;2022-08-18T07:33:52;56.73;;;40.93;;
9823;SDS011;4951;50.778;7.196;2022-08-18T07:36:27;69.40;;;45.87;;
9823;SDS011;4951;50.778;7.196;2022-08-18T07:39:05;69.97;;;45.47;;
9823;SDS011;4951;50.778;7.196;2022-08-18T07:41:42;64.57;;;43.03;;
9823;SDS011;4951;50.778;7.196;2022-08-18T07:44:17;71.57;;;44.03;;
9823;SDS011;4951;50.778;7.196;2022-08-18T07:47:07;62.27;;;43.67;;
9823;SDS011;4951;50.778;7.196;2022-08-18T07:49:40;62.73;;;43.70;;
9823;SDS011;4951;50.778;7.196;2022-08-18T07:52:17;56.77;;;41.53;;
9823;SDS011;4951;50.778;7.196;2022-08-18T07:54:57;62.00;;;41.75;;
9823;SDS011;4951;50.778;7.196;2022-08-18T07:57:32;56.03;;;38.20;;
9823;SDS011;4951;50.778;7.196;2022-08-18T08:00:08;63.50;;;42.95;;
9823;SDS011;4951;50.778;7.196;2022-08-18T08:02:43;69.07;;;45.30;;
9823;SDS011;4951;50.778;7.196;2022-08-18T08:05:20;66.07;;;44.38;;
9823;SDS011;4951;50.778;7.196;2022-08-18T08:08:00;77.55;;;50.65;;
9823;SDS011;4951;50.778;7.196;2022-08-18T08:10:38;73.27;;;51.00;;
9823;SDS011;4951;50.778;7.196;2022-08-18T08:13:17;78.80;;;51.47;;
9823;SDS011;4951;50.778;7.196;2022-08-18T08:15:52;75.60;;;50.95;;
9823;SDS011;4951;50.778;7.196;2022-08-18T08:18:28;87.40;;;54.67;;
9823;SDS011;4951;50.778;7.196;2022-08-18T08:21:15;74.97;;;51.10;;
9823;SDS011;4951;50.778;7.196;2022-08-18T08:23:46;73.90;;;50.63;;
9823;SDS011;4951;50.778;7.196;2022-08-18T08:26:22;80.28;;;53.63;;
9823;SDS011;4951;50.778;7.196;2022-08-18T08:28:57;79.65;;;54.00;;
9823;SDS011;4951;50.778;7.196;2022-08-18T08:31:38;80.45;;;55.40;;
9823;SDS011;4951;50.778;7.196;2022-08-18T08:34:13;79.72;;;53.95;;
9823;SDS011;4951;50.778;7.196;2022-08-18T08:36:44;88.25;;;55.83;;
9823;SDS011;4951;50.778;7.196;2022-08-18T08:39:22;66.65;;;47.13;;
9823;SDS011;4951;50.778;7.196;2022-08-18T08:41:56;78.60;;;51.80;;
9823;SDS011;4951;50.778;7.196;2022-08-18T08:44:31;78.43;;;53.13;;
9823;SDS011;4951;50.778;7.196;2022-08-18T08:47:07;73.75;;;50.65;;
9823;SDS011;4951;50.778;7.196;2022-08-18T08:49:39;80.55;;;54.17;;
9823;SDS011;4951;50.778;7.196;2022-08-18T08:52:14;70.82;;;51.20;;
9823;SDS011;4951;50.778;7.196;2022-08-18T08:54:47;71.53;;;50.87;;
9823;SDS011;4951;50.778;7.196;2022-08-18T08:57:21;73.13;;;52.67;;
9823;SDS011;4951;50.778;7.196;2022-08-18T08:59:58;73.75;;;52.55;;
9823;SDS011;4951;50.778;7.196;2022-08-18T09:02:38;66.47;;;47.17;;
9823;SDS011;4951;50.778;7.196;2022-08-18T09:05:18;67.77;;;48.87;;
9823;SDS011;4951;50.778;7.196;2022-08-18T09:08:02;66.50;;;50.13;;
9823;SDS011;4951;50.778;7.196;2022-08-18T09:10:54;65.40;;;48.03;;
9823;SDS011;4951;50.778;7.196;2022-08-18T09:16:51;61.90;;;43.27;;
9823;SDS011;4951;50.778;7.196;2022-08-18T09:19:39;64.78;;;46.50;;
9823;SDS011;4951;50.778;7.196;2022-08-18T09:22:25;53.97;;;41.53;;
9823;SDS011;4951;50.778;7.196;2022-08-18T09:25:07;56.33;;;42.80;;
9823;SDS011;4951;50.778;7.196;2022-08-18T09:27:39;57.47;;;46.00;;
9823;SDS011;4951;50.778;7.196;2022-08-18T09:30:35;59.08;;;46.97;;
9823;SDS011;4951;50.778;7.196;2022-08-18T09:33:12;57.65;;;47.10;;
9823;SDS011;4951;50.778;7.196;2022-08-18T09:35:52;65.75;;;51.33;;
9823;SDS011;4951;50.778;7.196;2022-08-18T09:38:32;53.08;;;42.80;;
9823;SDS011;4951;50.778;7.196;2022-08-18T09:41:22;47.05;;;37.30;;
9823;SDS011;4951;50.778;7.196;2022-08-18T09:43:58;57.15;;;46.25;;
9823;SDS011;4951;50.778;7.196;2022-08-18T09:46:49;57.35;;;46.38;;
9823;SDS011;4951;50.778;7.196;2022-08-18T09:58:18;59.42;;;49.03;;
9823;SDS011;4951;50.778;7.196;2022-08-18T10:10:12;53.00;;;47.25;;
9823;SDS011;4951;50.778;7.196;2022-08-18T10:12:53;56.35;;;49.35;;
9823;SDS011;4951;50.778;7.196;2022-08-18T10:15:57;56.30;;;49.03;;
9823;SDS011;4951;50.778;7.196;2022-08-18T10:19:04;56.78;;;50.70;;
9823;SDS011;4951;50.778;7.196;2022-08-18T10:22:00;56.03;;;49.88;;
9823;SDS011;4951;50.778;7.196;2022-08-18T10:24:34;56.83;;;50.75;;
9823;SDS011;4951;50.778;7.196;2022-08-18T10:27:23;58.70;;;52.45;;
9823;SDS011;4951;50.778;7.196;2022-08-18T10:30:03;53.40;;;47.97;;
9823;SDS011;4951;50.778;7.196;2022-08-18T10:32:37;55.15;;;49.30;;
9823;SDS011;4951;50.778;7.196;2022-08-18T10:41:08;45.80;;;41.20;;
9823;SDS011;4951;50.778;7.196;2022-08-18T10:43:46;43.47;;;39.10;;
9823;SDS011;4951;50.778;7.196;2022-08-18T10:46:17;47.95;;;43.22;;
9823;SDS011;4951;50.778;7.196;2022-08-18T10:48:58;45.78;;;41.00;;
9823;SDS011;4951;50.778;7.196;2022-08-18T10:54:28;47.10;;;42.47;;
9823;SDS011;4951;50.778;7.196;2022-08-18T10:57:07;47.58;;;42.78;;
9823;SDS011;4951;50.778;7.196;2022-08-18T10:59:45;42.70;;;38.67;;
9823;SDS011;4951;50.778;7.196;2022-08-18T11:02:23;49.92;;;44.63;;
9823;SDS011;4951;50.778;7.196;2022-08-18T11:05:06;39.85;;;35.85;;
9823;SDS011;4951;50.778;7.196;2022-08-18T11:07:35;43.88;;;39.58;;
9823;SDS011;4951;50.778;7.196;2022-08-18T11:10:16;46.97;;;42.20;;
9823;SDS011;4951;50.778;7.196;2022-08-18T11:12:52;46.45;;;41.80;;
9823;SDS011;4951;50.778;7.196;2022-08-18T11:15:32;43.53;;;39.33;;
9823;SDS011;4951;50.778;7.196;2022-08-18T11:18:12;45.03;;;40.13;;
9823;SDS011;4951;50.778;7.196;2022-08-18T11:20:53;44.30;;;39.67;;
9823;SDS011;4951;50.778;7.196;2022-08-18T11:23:41;40.63;;;36.70;;
9823;SDS011;4951;50.778;7.196;2022-08-18T11:26:12;42.38;;;38.20;;
9823;SDS011;4951;50.778;7.196;2022-08-18T11:28:40;41.00;;;37.08;;
9823;SDS011;4951;50.778;7.196;2022-08-18T11:31:09;44.83;;;40.42;;
9823;SDS011;4951;50.778;7.196;2022-08-18T11:33:38;41.97;;;37.80;;
9823;SDS011;4951;50.778;7.196;2022-08-18T11:36:06;40.28;;;36.20;;
9823;SDS011;4951;50.778;7.196;2022-08-18T11:38:34;37.70;;;34.20;;
9823;SDS011;4951;50.778;7.196;2022-08-18T11:41:10;39.30;;;35.63;;
9823;SDS011;4951;50.778;7.196;2022-08-18T11:43:43;36.00;;;32.70;;
9823;SDS011;4951;50.778;7.196;2022-08-18T11:46:13;40.95;;;36.65;;
9823;SDS011;4951;50.778;7.196;2022-08-18T11:49:11;32.55;;;29.35;;
9823;SDS011;4951;50.778;7.196;2022-08-18T11:51:52;39.60;;;35.70;;
9823;SDS011;4951;50.778;7.196;2022-08-18T11:54:22;36.88;;;33.28;;
9823;SDS011;4951;50.778;7.196;2022-08-18T11:59:57;32.45;;;29.00;;
9823;SDS011;4951;50.778;7.196;2022-08-18T12:02:26;31.83;;;28.83;;
9823;SDS011;4951;50.778;7.196;2022-08-18T12:04:59;32.20;;;29.20;;
9823;SDS011;4951;50.778;7.196;2022-08-18T12:07:28;29.85;;;27.15;;
9823;SDS011;4951;50.778;7.196;2022-08-18T12:10:10;33.42;;;30.27;;
9823;SDS011;4951;50.778;7.196;2022-08-18T12:12:45;28.83;;;26.05;;
9823;SDS011;4951;50.778;7.196;2022-08-18T12:15:24;30.08;;;27.08;;
9823;SDS011;4951;50.778;7.196;2022-08-18T12:17:55;31.63;;;28.60;;
9823;SDS011;4951;50.778;7.196;2022-08-18T12:20:23;32.67;;;29.52;;
9823;SDS011;4951;50.778;7.196;2022-08-18T12:22:54;29.90;;;27.05;;
9823;SDS011;4951;50.778;7.196;2022-08-18T12:25:29;28.67;;;26.08;;
9823;SDS011;4951;50.778;7.196;2022-08-18T12:27:58;29.17;;;26.48;;
9823;SDS011;4951;50.778;7.196;2022-08-18T12:30:34;29.45;;;26.65;;
9823;SDS011;4951;50.778;7.196;2022-08-18T12:33:07;26.75;;;24.30;;
9823;SDS011;4951;50.778;7.196;2022-08-18T12:35:36;27.95;;;25.25;;
9823;SDS011;4951;50.778;7.196;2022-08-18T12:38:06;29.02;;;26.42;;
9823;SDS011;4951;50.778;7.196;2022-08-18T12:40:36;27.42;;;24.83;;
9823;SDS011;4951;50.778;7.196;2022-08-18T12:43:06;27.15;;;24.70;;
9823;SDS011;4951;50.778;7.196;2022-08-18T12:45:35;27.27;;;24.73;;
9823;SDS011;4951;50.778;7.196;2022-08-18T12:48:04;27.33;;;24.92;;
9823;SDS011;4951;50.778;7.196;2022-08-18T12:50:34;27.48;;;24.92;;
9823;SDS011;4951;50.778;7.196;2022-08-18T12:53:02;27.70;;;25.20;;
9823;SDS011;4951;50.778;7.196;2022-08-18T12:55:33;30.25;;;27.42;;
9823;SDS011;4951;50.778;7.196;2022-08-18T12:58:09;29.05;;;26.25;;
9823;SDS011;4951;50.778;7.196;2022-08-18T13:00:47;26.58;;;24.13;;
9823;SDS011;4951;50.778;7.196;2022-08-18T13:03:35;25.30;;;23.10;;
9823;SDS011;4951;50.778;7.196;2022-08-18T13:06:17;27.83;;;25.35;;
9823;SDS011;4951;50.778;7.196;2022-08-18T13:08:48;27.08;;;24.67;;
9823;SDS011;4951;50.778;7.196;2022-08-18T13:11:22;24.60;;;22.48;;
9823;SDS011;4951;50.778;7.196;2022-08-18T13:13:54;24.30;;;21.95;;
9823;SDS011;4951;50.778;7.196;2022-08-18T13:16:22;23.92;;;21.73;;
9823;SDS011;4951;50.778;7.196;2022-08-18T13:18:51;24.85;;;22.65;;
9823;SDS011;4951;50.778;7.196;2022-08-18T13:21:20;22.05;;;20.15;;
9823;SDS011;4951;50.778;7.196;2022-08-18T13:23:51;20.27;;;18.55;;
9823;SDS011;4951;50.778;7.196;2022-08-18T13:26:24;20.85;;;18.85;;
9823;SDS011;4951;50.778;7.196;2022-08-18T13:29:16;20.50;;;18.75;;
9823;SDS011;4951;50.778;7.196;2022-08-18T13:31:45;22.85;;;20.73;;
9823;SDS011;4951;50.778;7.196;2022-08-18T13:34:24;23.65;;;21.48;;
9823;SDS011;4951;50.778;7.196;2022-08-18T13:36:59;20.08;;;18.23;;
9823;SDS011;4951;50.778;7.196;2022-08-18T13:39:27;22.25;;;20.38;;
9823;SDS011;4951;50.778;7.196;2022-08-18T13:41:58;21.38;;;19.27;;
9823;SDS011;4951;50.778;7.196;2022-08-18T13:45:01;23.30;;;21.00;;
9823;SDS011;4951;50.778;7.196;2022-08-18T13:48:15;18.05;;;16.45;;
9823;SDS011;4951;50.778;7.196;2022-08-18T13:50:51;25.13;;;22.73;;
9823;SDS011;4951;50.778;7.196;2022-08-18T13:53:21;19.85;;;17.88;;
9823;SDS011;4951;50.778;7.196;2022-08-18T13:55:49;21.05;;;18.98;;
9823;SDS011;4951;50.778;7.196;2022-08-18T13:58:22;19.45;;;17.70;;
9823;SDS011;4951;50.778;7.196;2022-08-18T14:00:49;22.20;;;20.20;;
9823;SDS011;4951;50.778;7.196;2022-08-18T14:03:21;21.20;;;19.23;;
9823;SDS011;4951;50.778;7.196;2022-08-18T14:05:53;18.33;;;16.63;;
9823;SDS011;4951;50.778;7.196;2022-08-18T14:08:25;21.10;;;19.05;;
9823;SDS011;4951;50.778;7.196;2022-08-18T14:10:57;20.77;;;18.77;;
9823;SDS011;4951;50.778;7.196;2022-08-18T14:13:47;19.67;;;17.75;;
9823;SDS011;4951;50.778;7.196;2022-08-18T14:16:19;19.30;;;17.40;;
9823;SDS011;4951;50.778;7.196;2022-08-18T14:18:50;18.15;;;16.50;;
9823;SDS011;4951;50.778;7.196;2022-08-18T14:21:35;17.33;;;15.93;;
9823;SDS011;4951;50.778;7.196;2022-08-18T14:24:25;18.90;;;17.20;;
9823;SDS011;4951;50.778;7.196;2022-08-18T14:27:10;17.48;;;15.90;;
9823;SDS011;4951;50.778;7.196;2022-08-18T14:29:37;16.33;;;14.82;;
9823;SDS011;4951;50.778;7.196;2022-08-18T14:32:07;15.82;;;14.32;;
9823;SDS011;4951;50.778;7.196;2022-08-18T14:34:35;16.48;;;15.07;;
9823;SDS011;4951;50.778;7.196;2022-08-18T14:37:05;14.77;;;13.38;;
9823;SDS011;4951;50.778;7.196;2022-08-18T14:39:33;16.00;;;14.70;;
9823;SDS011;4951;50.778;7.196;2022-08-18T14:42:01;18.35;;;16.75;;
9823;SDS011;4951;50.778;7.196;2022-08-18T14:44:32;14.68;;;13.25;;
9823;SDS011;4951;50.778;7.196;2022-08-18T14:47:22;15.55;;;14.32;;
9823;SDS011;4951;50.778;7.196;2022-08-18T14:49:52;16.30;;;14.90;;
9823;SDS011;4951;50.778;7.196;2022-08-18T14:52:22;16.20;;;14.77;;
9823;SDS011;4951;50.778;7.196;2022-08-18T14:54:59;15.57;;;14.18;;
9823;SDS011;4951;50.778;7.196;2022-08-18T14:57:28;16.85;;;15.43;;
9823;SDS011;4951;50.778;7.196;2022-08-18T15:00:00;13.75;;;12.63;;
9823;SDS011;4951;50.778;7.196;2022-08-18T15:02:33;14.95;;;13.60;;
9823;SDS011;4951;50.778;7.196;2022-08-18T15:05:02;17.25;;;15.75;;
9823;SDS011;4951;50.778;7.196;2022-08-18T15:07:31;13.88;;;12.77;;
9823;SDS011;4951;50.778;7.196;2022-08-18T15:10:02;14.30;;;12.95;;
9823;SDS011;4951;50.778;7.196;2022-08-18T15:12:30;14.68;;;13.40;;
9823;SDS011;4951;50.778;7.196;2022-08-18T15:15:07;13.85;;;12.75;;
9823;SDS011;4951;50.778;7.196;2022-08-18T15:17:37;12.98;;;11.82;;
9823;SDS011;4951;50.778;7.196;2022-08-18T15:20:07;13.30;;;11.98;;
9823;SDS011;4951;50.778;7.196;2022-08-18T15:22:38;14.30;;;13.02;;
9823;SDS011;4951;50.778;7.196;2022-08-18T15:25:37;12.05;;;11.05;;
9823;SDS011;4951;50.778;7.196;2022-08-18T15:28:09;13.15;;;11.82;;
9823;SDS011;4951;50.778;7.196;2022-08-18T15:30:37;14.23;;;13.00;;
9823;SDS011;4951;50.778;7.196;2022-08-18T15:33:28;13.50;;;12.35;;
9823;SDS011;4951;50.778;7.196;2022-08-18T15:36:00;12.18;;;11.15;;
9823;SDS011;4951;50.778;7.196;2022-08-18T15:42:04;10.73;;;9.82;;
9823;SDS011;4951;50.778;7.196;2022-08-18T15:44:40;12.18;;;10.80;;
9823;SDS011;4951;50.778;7.196;2022-08-18T15:47:07;10.50;;;9.55;;
9823;SDS011;4951;50.778;7.196;2022-08-18T15:50:02;10.07;;;9.07;;
9823;SDS011;4951;50.778;7.196;2022-08-18T15:52:31;10.25;;;9.32;;
9823;SDS011;4951;50.778;7.196;2022-08-18T15:55:00;8.73;;;7.88;;
9823;SDS011;4951;50.778;7.196;2022-08-18T16:00:22;8.15;;;7.13;;
9823;SDS011;4951;50.778;7.196;2022-08-18T16:02:52;7.75;;;7.05;;
9823;SDS011;4951;50.778;7.196;2022-08-18T16:05:32;7.63;;;6.93;;
9823;SDS011;4951;50.778;7.196;2022-08-18T16:08:02;8.82;;;8.13;;
9823;SDS011;4951;50.778;7.196;2022-08-18T16:10:54;8.52;;;7.60;;
9823;SDS011;4951;50.778;7.196;2022-08-18T16:13:34;8.80;;;8.10;;
9823;SDS011;4951;50.778;7.196;2022-08-18T16:16:07;8.60;;;7.90;;
9823;SDS011;4951;50.778;7.196;2022-08-18T16:18:37;9.48;;;8.60;;